sensor_id;sensor_type;location;lat;lon;timestamp;P1;durP1;ratioP1;P2;durP2;ratioP2
28009;SDS011;15334;49.494;8.410;2023-05-10T00:00:41;2.95;;;1.00;;
28009;SDS011;15334;49.494;8.410;2023-05-10T00:03:09;1.88;;;0.98;;
28009;SDS011;15334;49.494;8.410;2023-05-10T00:05:37;2.58;;;1.15;;
28009;SDS011;15334;49.494;8.410;2023-05-10T00:08:07;2.55;;;1.38;;
28009;SDS011;15334;49.494;8.410;2023-05-10T00:10:35;3.10;;;1.23;;
28009;SDS011;15334;49.494;8.410;2023-05-10T00:13:04;3.65;;;1.30;;
28009;SDS011;15334;49.494;8.410;2023-05-10T00:15:32;3.00;;;1.50;;
28009;SDS011;15334;49.494;8.410;2023-05-10T00:18:01;2.90;;;1.45;;
28009;SDS011;15334;49.494;8.410;2023-05-10T00:20:29;3.05;;;1.50;;
28009;SDS011;15334;49.494;8.410;2023-05-10T00:22:57;3.28;;;1.70;;
28009;SDS011;15334;49.494;8.410;2023-05-10T00:25:26;2.92;;;1.52;;
28009;SDS011;15334;49.494;8.410;2023-05-10T00:27:54;3.13;;;1.60;;
28009;SDS011;15334;49.494;8.410;2023-05-10T00:30:23;4.38;;;1.67;;
28009;SDS011;15334;49.494;8.410;2023-05-10T00:32:51;4.10;;;2.00;;
28009;SDS011;15334;49.494;8.410;2023-05-10T00:35:19;2.92;;;1.40;;
28009;SDS011;15334;49.494;8.410;2023-05-10T00:37:48;5.18;;;1.80;;
28009;SDS011;15334;49.494;8.410;2023-05-10T00:40:16;2.78;;;1.63;;
28009;SDS011;15334;49.494;8.410;2023-05-10T00:42:46;4.38;;;1.63;;
28009;SDS011;15334;49.494;8.410;2023-05-10T00:45:14;3.15;;;1.65;;
28009;SDS011;15334;49.494;8.410;2023-05-10T00:47:42;2.83;;;1.60;;
28009;SDS011;15334;49.494;8.410;2023-05-10T00:50:10;8.30;;;2.00;;
28009;SDS011;15334;49.494;8.410;2023-05-10T00:52:38;3.63;;;1.85;;
28009;SDS011;15334;49.494;8.410;2023-05-10T00:55:07;3.70;;;1.75;;
28009;SDS011;15334;49.494;8.410;2023-05-10T00:57:36;5.40;;;2.10;;
28009;SDS011;15334;49.494;8.410;2023-05-10T01:00:07;2.47;;;1.75;;
28009;SDS011;15334;49.494;8.410;2023-05-10T01:02:36;6.57;;;2.10;;
28009;SDS011;15334;49.494;8.410;2023-05-10T01:05:04;4.00;;;2.08;;
28009;SDS011;15334;49.494;8.410;2023-05-10T01:07:33;6.00;;;2.03;;
28009;SDS011;15334;49.494;8.410;2023-05-10T01:10:01;4.00;;;1.95;;
28009;SDS011;15334;49.494;8.410;2023-05-10T01:12:29;4.13;;;2.03;;
28009;SDS011;15334;49.494;8.410;2023-05-10T01:14:58;5.32;;;2.10;;
28009;SDS011;15334;49.494;8.410;2023-05-10T01:17:29;4.68;;;2.20;;
28009;SDS011;15334;49.494;8.410;2023-05-10T01:19:58;4.80;;;2.33;;
28009;SDS011;15334;49.494;8.410;2023-05-10T01:22:32;4.13;;;2.13;;
28009;SDS011;15334;49.494;8.410;2023-05-10T01:25:25;3.03;;;1.48;;
28009;SDS011;15334;49.494;8.410;2023-05-10T01:28:14;4.83;;;2.47;;
28009;SDS011;15334;49.494;8.410;2023-05-10T01:31:06;5.47;;;2.38;;
28009;SDS011;15334;49.494;8.410;2023-05-10T01:33:46;3.40;;;1.98;;
28009;SDS011;15334;49.494;8.410;2023-05-10T01:36:18;5.93;;;2.10;;
28009;SDS011;15334;49.494;8.410;2023-05-10T01:38:53;4.45;;;2.55;;
28009;SDS011;15334;49.494;8.410;2023-05-10T01:41:29;4.40;;;2.13;;
28009;SDS011;15334;49.494;8.410;2023-05-10T01:44:05;4.47;;;2.30;;
28009;SDS011;15334;49.494;8.410;2023-05-10T01:46:40;4.28;;;2.15;;
28009;SDS011;15334;49.494;8.410;2023-05-10T01:49:11;6.05;;;2.00;;
28009;SDS011;15334;49.494;8.410;2023-05-10T01:51:45;4.28;;;2.33;;
28009;SDS011;15334;49.494;8.410;2023-05-10T01:54:20;4.20;;;2.20;;
28009;SDS011;15334;49.494;8.410;2023-05-10T01:56:52;4.18;;;2.35;;
28009;SDS011;15334;49.494;8.410;2023-05-10T01:59:25;3.70;;;2.10;;
28009;SDS011;15334;49.494;8.410;2023-05-10T02:01:58;5.00;;;2.40;;
28009;SDS011;15334;49.494;8.410;2023-05-10T02:04:29;4.18;;;2.28;;
28009;SDS011;15334;49.494;8.410;2023-05-10T02:06:59;6.57;;;2.73;;
28009;SDS011;15334;49.494;8.410;2023-05-10T02:09:28;6.90;;;2.83;;
28009;SDS011;15334;49.494;8.410;2023-05-10T02:11:59;3.45;;;2.10;;
28009;SDS011;15334;49.494;8.410;2023-05-10T02:14:32;5.70;;;2.83;;
28009;SDS011;15334;49.494;8.410;2023-05-10T02:17:02;4.07;;;2.42;;
28009;SDS011;15334;49.494;8.410;2023-05-10T02:19:33;4.10;;;2.30;;
28009;SDS011;15334;49.494;8.410;2023-05-10T02:22:07;6.50;;;2.78;;
28009;SDS011;15334;49.494;8.410;2023-05-10T02:24:36;4.95;;;2.72;;
28009;SDS011;15334;49.494;8.410;2023-05-10T02:27:06;7.82;;;2.80;;
28009;SDS011;15334;49.494;8.410;2023-05-10T02:29:35;5.97;;;2.80;;
28009;SDS011;15334;49.494;8.410;2023-05-10T02:32:04;5.45;;;2.50;;
28009;SDS011;15334;49.494;8.410;2023-05-10T02:34:37;4.32;;;2.17;;
28009;SDS011;15334;49.494;8.410;2023-05-10T02:37:07;4.72;;;2.63;;
28009;SDS011;15334;49.494;8.410;2023-05-10T02:39:36;4.22;;;2.33;;
28009;SDS011;15334;49.494;8.410;2023-05-10T02:42:10;6.05;;;2.80;;
28009;SDS011;15334;49.494;8.410;2023-05-10T02:47:10;4.25;;;2.42;;
28009;SDS011;15334;49.494;8.410;2023-05-10T02:49:40;5.85;;;3.10;;
28009;SDS011;15334;49.494;8.410;2023-05-10T02:52:08;4.43;;;2.47;;
28009;SDS011;15334;49.494;8.410;2023-05-10T02:54:39;4.45;;;2.50;;
28009;SDS011;15334;49.494;8.410;2023-05-10T02:57:15;5.53;;;2.75;;
28009;SDS011;15334;49.494;8.410;2023-05-10T02:59:45;5.95;;;2.80;;
28009;SDS011;15334;49.494;8.410;2023-05-10T03:02:13;5.80;;;2.70;;
28009;SDS011;15334;49.494;8.410;2023-05-10T03:04:43;5.97;;;3.08;;
28009;SDS011;15334;49.494;8.410;2023-05-10T03:07:12;8.85;;;3.60;;
28009;SDS011;15334;49.494;8.410;2023-05-10T03:09:40;7.13;;;2.72;;
28009;SDS011;15334;49.494;8.410;2023-05-10T03:12:11;4.85;;;2.70;;
28009;SDS011;15334;49.494;8.410;2023-05-10T03:14:45;8.68;;;3.25;;
28009;SDS011;15334;49.494;8.410;2023-05-10T03:17:22;6.90;;;3.05;;
28009;SDS011;15334;49.494;8.410;2023-05-10T03:19:58;5.43;;;2.90;;
28009;SDS011;15334;49.494;8.410;2023-05-10T03:22:32;8.65;;;3.05;;
28009;SDS011;15334;49.494;8.410;2023-05-10T03:25:05;8.95;;;4.10;;
28009;SDS011;15334;49.494;8.410;2023-05-10T03:27:35;9.10;;;4.15;;
28009;SDS011;15334;49.494;8.410;2023-05-10T03:30:07;7.05;;;3.75;;
28009;SDS011;15334;49.494;8.410;2023-05-10T03:32:38;7.40;;;3.58;;
28009;SDS011;15334;49.494;8.410;2023-05-10T03:35:07;8.73;;;3.63;;
28009;SDS011;15334;49.494;8.410;2023-05-10T03:37:36;8.07;;;4.30;;
28009;SDS011;15334;49.494;8.410;2023-05-10T03:40:05;7.47;;;4.20;;
28009;SDS011;15334;49.494;8.410;2023-05-10T03:42:33;7.25;;;4.10;;
28009;SDS011;15334;49.494;8.410;2023-05-10T03:45:02;6.97;;;3.72;;
28009;SDS011;15334;49.494;8.410;2023-05-10T03:47:30;7.60;;;4.10;;
28009;SDS011;15334;49.494;8.410;2023-05-10T03:49:58;8.82;;;3.58;;
28009;SDS011;15334;49.494;8.410;2023-05-10T03:52:28;5.93;;;3.53;;
28009;SDS011;15334;49.494;8.410;2023-05-10T03:54:56;6.40;;;3.55;;
28009;SDS011;15334;49.494;8.410;2023-05-10T03:57:24;8.02;;;3.92;;
28009;SDS011;15334;49.494;8.410;2023-05-10T03:59:52;8.25;;;4.28;;
28009;SDS011;15334;49.494;8.410;2023-05-10T04:02:20;7.20;;;3.72;;
28009;SDS011;15334;49.494;8.410;2023-05-10T04:04:49;8.05;;;3.95;;
28009;SDS011;15334;49.494;8.410;2023-05-10T04:07:17;8.98;;;4.03;;
28009;SDS011;15334;49.494;8.410;2023-05-10T04:09:47;7.80;;;3.75;;
28009;SDS011;15334;49.494;8.410;2023-05-10T04:12:15;5.50;;;3.42;;
28009;SDS011;15334;49.494;8.410;2023-05-10T04:14:43;7.57;;;3.80;;
28009;SDS011;15334;49.494;8.410;2023-05-10T04:17:11;6.10;;;3.53;;
28009;SDS011;15334;49.494;8.410;2023-05-10T04:19:39;7.43;;;3.88;;
28009;SDS011;15334;49.494;8.410;2023-05-10T04:22:07;8.02;;;4.40;;
28009;SDS011;15334;49.494;8.410;2023-05-10T04:24:35;9.15;;;4.60;;
28009;SDS011;15334;49.494;8.410;2023-05-10T04:27:05;7.00;;;4.13;;
28009;SDS011;15334;49.494;8.410;2023-05-10T04:29:33;10.50;;;4.50;;
28009;SDS011;15334;49.494;8.410;2023-05-10T04:32:02;8.18;;;4.22;;
28009;SDS011;15334;49.494;8.410;2023-05-10T04:34:30;9.23;;;3.97;;
28009;SDS011;15334;49.494;8.410;2023-05-10T04:37:00;8.30;;;4.55;;
28009;SDS011;15334;49.494;8.410;2023-05-10T04:39:28;9.60;;;3.85;;
28009;SDS011;15334;49.494;8.410;2023-05-10T04:41:56;7.05;;;4.35;;
28009;SDS011;15334;49.494;8.410;2023-05-10T04:44:26;7.68;;;4.43;;
28009;SDS011;15334;49.494;8.410;2023-05-10T04:46:54;9.50;;;4.18;;
28009;SDS011;15334;49.494;8.410;2023-05-10T04:49:22;8.20;;;4.53;;
28009;SDS011;15334;49.494;8.410;2023-05-10T04:51:50;10.13;;;4.35;;
28009;SDS011;15334;49.494;8.410;2023-05-10T04:54:18;10.45;;;4.65;;
28009;SDS011;15334;49.494;8.410;2023-05-10T04:56:46;7.68;;;4.30;;
28009;SDS011;15334;49.494;8.410;2023-05-10T04:59:14;7.88;;;4.20;;
28009;SDS011;15334;49.494;8.410;2023-05-10T05:01:44;9.98;;;4.70;;
28009;SDS011;15334;49.494;8.410;2023-05-10T05:04:12;14.82;;;5.15;;
28009;SDS011;15334;49.494;8.410;2023-05-10T05:06:40;10.10;;;4.85;;
28009;SDS011;15334;49.494;8.410;2023-05-10T05:09:09;9.23;;;5.15;;
28009;SDS011;15334;49.494;8.410;2023-05-10T05:11:37;7.85;;;5.15;;
28009;SDS011;15334;49.494;8.410;2023-05-10T05:14:06;10.18;;;5.82;;
28009;SDS011;15334;49.494;8.410;2023-05-10T05:16:34;9.90;;;5.07;;
28009;SDS011;15334;49.494;8.410;2023-05-10T05:19:04;9.63;;;5.40;;
28009;SDS011;15334;49.494;8.410;2023-05-10T05:21:32;11.82;;;5.90;;
28009;SDS011;15334;49.494;8.410;2023-05-10T05:24:00;8.80;;;5.50;;
28009;SDS011;15334;49.494;8.410;2023-05-10T05:26:28;11.75;;;5.13;;
28009;SDS011;15334;49.494;8.410;2023-05-10T05:28:56;7.55;;;4.95;;
28009;SDS011;15334;49.494;8.410;2023-05-10T05:31:24;9.15;;;5.40;;
28009;SDS011;15334;49.494;8.410;2023-05-10T05:33:52;11.88;;;5.90;;
28009;SDS011;15334;49.494;8.410;2023-05-10T05:36:22;9.70;;;5.28;;
28009;SDS011;15334;49.494;8.410;2023-05-10T05:38:50;9.07;;;5.30;;
28009;SDS011;15334;49.494;8.410;2023-05-10T05:41:18;8.82;;;4.68;;
28009;SDS011;15334;49.494;8.410;2023-05-10T05:43:47;8.35;;;5.05;;
28009;SDS011;15334;49.494;8.410;2023-05-10T05:46:16;8.65;;;4.78;;
28009;SDS011;15334;49.494;8.410;2023-05-10T05:48:44;11.90;;;4.78;;
28009;SDS011;15334;49.494;8.410;2023-05-10T05:51:12;8.27;;;4.75;;
28009;SDS011;15334;49.494;8.410;2023-05-10T05:53:41;7.70;;;4.38;;
28009;SDS011;15334;49.494;8.410;2023-05-10T05:56:09;8.13;;;4.65;;
28009;SDS011;15334;49.494;8.410;2023-05-10T05:58:37;7.65;;;4.25;;
28009;SDS011;15334;49.494;8.410;2023-05-10T06:01:06;7.03;;;4.00;;
28009;SDS011;15334;49.494;8.410;2023-05-10T06:03:34;11.43;;;4.30;;
28009;SDS011;15334;49.494;8.410;2023-05-10T06:06:03;7.45;;;3.85;;
28009;SDS011;15334;49.494;8.410;2023-05-10T06:08:31;12.15;;;5.50;;
28009;SDS011;15334;49.494;8.410;2023-05-10T06:11:01;10.63;;;5.35;;
28009;SDS011;15334;49.494;8.410;2023-05-10T06:13:30;10.48;;;5.07;;
28009;SDS011;15334;49.494;8.410;2023-05-10T06:16:01;8.40;;;5.25;;
28009;SDS011;15334;49.494;8.410;2023-05-10T06:18:30;16.00;;;7.10;;
28009;SDS011;15334;49.494;8.410;2023-05-10T06:20:58;12.10;;;6.90;;
28009;SDS011;15334;49.494;8.410;2023-05-10T06:23:26;12.20;;;6.45;;
28009;SDS011;15334;49.494;8.410;2023-05-10T06:25:55;8.32;;;5.75;;
28009;SDS011;15334;49.494;8.410;2023-05-10T06:28:24;10.88;;;6.95;;
28009;SDS011;15334;49.494;8.410;2023-05-10T06:30:52;9.23;;;6.15;;
28009;SDS011;15334;49.494;8.410;2023-05-10T06:33:20;13.02;;;6.03;;
28009;SDS011;15334;49.494;8.410;2023-05-10T06:35:48;8.27;;;5.28;;
28009;SDS011;15334;49.494;8.410;2023-05-10T06:38:16;8.88;;;5.10;;
28009;SDS011;15334;49.494;8.410;2023-05-10T06:40:44;7.57;;;4.60;;
28009;SDS011;15334;49.494;8.410;2023-05-10T06:43:13;7.80;;;4.22;;
28009;SDS011;15334;49.494;8.410;2023-05-10T06:45:42;7.10;;;4.40;;
28009;SDS011;15334;49.494;8.410;2023-05-10T06:48:10;7.13;;;4.25;;
28009;SDS011;15334;49.494;8.410;2023-05-10T06:50:38;6.90;;;3.72;;
28009;SDS011;15334;49.494;8.410;2023-05-10T06:53:07;5.70;;;3.80;;
28009;SDS011;15334;49.494;8.410;2023-05-10T06:55:34;5.03;;;3.38;;
28009;SDS011;15334;49.494;8.410;2023-05-10T06:58:02;5.28;;;3.45;;
28009;SDS011;15334;49.494;8.410;2023-05-10T07:00:30;5.25;;;3.45;;
28009;SDS011;15334;49.494;8.410;2023-05-10T07:03:00;4.80;;;2.75;;
28009;SDS011;15334;49.494;8.410;2023-05-10T07:05:28;6.68;;;4.07;;
28009;SDS011;15334;49.494;8.410;2023-05-10T07:07:56;5.30;;;3.38;;
28009;SDS011;15334;49.494;8.410;2023-05-10T07:10:25;5.18;;;3.03;;
28009;SDS011;15334;49.494;8.410;2023-05-10T07:12:53;6.88;;;3.30;;
28009;SDS011;15334;49.494;8.410;2023-05-10T07:15:21;5.75;;;3.15;;
28009;SDS011;15334;49.494;8.410;2023-05-10T07:17:49;4.60;;;2.90;;
28009;SDS011;15334;49.494;8.410;2023-05-10T07:20:20;4.85;;;2.85;;
28009;SDS011;15334;49.494;8.410;2023-05-10T07:22:48;4.60;;;2.00;;
28009;SDS011;15334;49.494;8.410;2023-05-10T07:25:16;3.88;;;1.80;;
28009;SDS011;15334;49.494;8.410;2023-05-10T07:27:44;3.42;;;1.52;;
28009;SDS011;15334;49.494;8.410;2023-05-10T07:30:14;3.60;;;1.27;;
28009;SDS011;15334;49.494;8.410;2023-05-10T07:32:43;1.80;;;1.33;;
28009;SDS011;15334;49.494;8.410;2023-05-10T07:35:12;3.13;;;1.67;;
28009;SDS011;15334;49.494;8.410;2023-05-10T07:37:41;4.35;;;1.15;;
28009;SDS011;15334;49.494;8.410;2023-05-10T07:40:10;2.20;;;1.40;;
28009;SDS011;15334;49.494;8.410;2023-05-10T07:42:38;2.97;;;1.20;;
28009;SDS011;15334;49.494;8.410;2023-05-10T07:45:06;2.53;;;1.33;;
28009;SDS011;15334;49.494;8.410;2023-05-10T07:47:35;2.38;;;1.25;;
28009;SDS011;15334;49.494;8.410;2023-05-10T07:50:04;2.05;;;1.23;;
28009;SDS011;15334;49.494;8.410;2023-05-10T07:52:33;3.50;;;1.10;;
28009;SDS011;15334;49.494;8.410;2023-05-10T07:55:02;1.30;;;1.20;;
28009;SDS011;15334;49.494;8.410;2023-05-10T07:57:31;2.45;;;1.45;;
28009;SDS011;15334;49.494;8.410;2023-05-10T07:59:59;3.83;;;1.50;;
28009;SDS011;15334;49.494;8.410;2023-05-10T08:02:27;2.20;;;1.10;;
28009;SDS011;15334;49.494;8.410;2023-05-10T08:04:55;1.67;;;1.20;;
28009;SDS011;15334;49.494;8.410;2023-05-10T08:07:24;1.98;;;0.80;;
28009;SDS011;15334;49.494;8.410;2023-05-10T08:09:52;2.78;;;1.35;;
28009;SDS011;15334;49.494;8.410;2023-05-10T08:12:21;4.95;;;1.00;;
28009;SDS011;15334;49.494;8.410;2023-05-10T08:14:49;2.00;;;1.23;;
28009;SDS011;15334;49.494;8.410;2023-05-10T08:17:17;2.67;;;1.35;;
28009;SDS011;15334;49.494;8.410;2023-05-10T08:19:47;2.30;;;1.20;;
28009;SDS011;15334;49.494;8.410;2023-05-10T08:22:15;2.15;;;1.00;;
28009;SDS011;15334;49.494;8.410;2023-05-10T08:24:43;1.80;;;1.08;;
28009;SDS011;15334;49.494;8.410;2023-05-10T08:27:11;1.50;;;1.00;;
28009;SDS011;15334;49.494;8.410;2023-05-10T08:29:40;2.08;;;1.05;;
28009;SDS011;15334;49.494;8.410;2023-05-10T08:32:15;1.10;;;0.70;;
28009;SDS011;15334;49.494;8.410;2023-05-10T08:34:43;2.30;;;1.20;;
28009;SDS011;15334;49.494;8.410;2023-05-10T08:37:11;4.53;;;1.00;;
28009;SDS011;15334;49.494;8.410;2023-05-10T08:39:40;1.55;;;1.00;;
28009;SDS011;15334;49.494;8.410;2023-05-10T08:42:08;1.23;;;1.00;;
28009;SDS011;15334;49.494;8.410;2023-05-10T08:44:37;2.45;;;1.15;;
28009;SDS011;15334;49.494;8.410;2023-05-10T08:47:06;1.08;;;0.95;;
28009;SDS011;15334;49.494;8.410;2023-05-10T08:49:36;1.65;;;1.00;;
28009;SDS011;15334;49.494;8.410;2023-05-10T08:52:05;3.25;;;1.10;;
28009;SDS011;15334;49.494;8.410;2023-05-10T08:54:34;1.95;;;1.08;;
28009;SDS011;15334;49.494;8.410;2023-05-10T08:57:02;5.15;;;1.55;;
28009;SDS011;15334;49.494;8.410;2023-05-10T08:59:31;2.53;;;1.25;;
28009;SDS011;15334;49.494;8.410;2023-05-10T09:01:59;3.08;;;1.50;;
28009;SDS011;15334;49.494;8.410;2023-05-10T09:04:30;2.70;;;1.17;;
28009;SDS011;15334;49.494;8.410;2023-05-10T09:06:58;1.27;;;1.00;;
28009;SDS011;15334;49.494;8.410;2023-05-10T09:09:27;3.17;;;1.70;;
28009;SDS011;15334;49.494;8.410;2023-05-10T09:11:56;2.90;;;1.70;;
28009;SDS011;15334;49.494;8.410;2023-05-10T09:14:24;4.32;;;1.35;;
28009;SDS011;15334;49.494;8.410;2023-05-10T09:16:53;2.85;;;1.63;;
28009;SDS011;15334;49.494;8.410;2023-05-10T09:19:22;0.98;;;0.80;;
28009;SDS011;15334;49.494;8.410;2023-05-10T09:21:51;2.63;;;1.45;;
28009;SDS011;15334;49.494;8.410;2023-05-10T09:24:20;2.95;;;1.20;;
28009;SDS011;15334;49.494;8.410;2023-05-10T09:26:52;2.70;;;0.90;;
28009;SDS011;15334;49.494;8.410;2023-05-10T09:29:20;5.00;;;0.90;;
28009;SDS011;15334;49.494;8.410;2023-05-10T09:31:50;4.00;;;1.80;;
28009;SDS011;15334;49.494;8.410;2023-05-10T09:34:22;2.65;;;1.00;;
28009;SDS011;15334;49.494;8.410;2023-05-10T09:36:58;3.03;;;1.20;;
28009;SDS011;15334;49.494;8.410;2023-05-10T09:42:01;1.75;;;1.08;;
28009;SDS011;15334;49.494;8.410;2023-05-10T09:44:31;2.08;;;1.15;;
28009;SDS011;15334;49.494;8.410;2023-05-10T09:47:00;4.97;;;0.98;;
28009;SDS011;15334;49.494;8.410;2023-05-10T09:49:28;3.53;;;0.93;;
28009;SDS011;15334;49.494;8.410;2023-05-10T09:52:02;1.48;;;0.85;;
28009;SDS011;15334;49.494;8.410;2023-05-10T09:54:45;1.73;;;1.00;;
28009;SDS011;15334;49.494;8.410;2023-05-10T09:57:20;3.50;;;1.00;;
28009;SDS011;15334;49.494;8.410;2023-05-10T09:59:49;5.25;;;1.35;;
28009;SDS011;15334;49.494;8.410;2023-05-10T10:02:17;1.33;;;0.88;;
28009;SDS011;15334;49.494;8.410;2023-05-10T10:04:45;0.95;;;0.80;;
28009;SDS011;15334;49.494;8.410;2023-05-10T10:07:23;1.80;;;1.10;;
28009;SDS011;15334;49.494;8.410;2023-05-10T10:09:52;2.45;;;1.58;;
28009;SDS011;15334;49.494;8.410;2023-05-10T10:12:21;2.40;;;1.40;;
28009;SDS011;15334;49.494;8.410;2023-05-10T10:14:49;3.30;;;1.75;;
28009;SDS011;15334;49.494;8.410;2023-05-10T10:17:18;2.22;;;1.52;;
28009;SDS011;15334;49.494;8.410;2023-05-10T10:19:47;5.20;;;2.20;;
28009;SDS011;15334;49.494;8.410;2023-05-10T10:22:16;2.28;;;1.83;;
28009;SDS011;15334;49.494;8.410;2023-05-10T10:24:46;4.05;;;1.90;;
28009;SDS011;15334;49.494;8.410;2023-05-10T10:27:18;3.08;;;1.77;;
28009;SDS011;15334;49.494;8.410;2023-05-10T10:29:53;1.55;;;1.20;;
28009;SDS011;15334;49.494;8.410;2023-05-10T10:32:30;2.42;;;1.50;;
28009;SDS011;15334;49.494;8.410;2023-05-10T10:35:09;1.92;;;1.00;;
28009;SDS011;15334;49.494;8.410;2023-05-10T10:37:44;1.20;;;0.98;;
28009;SDS011;15334;49.494;8.410;2023-05-10T10:40:24;1.83;;;1.10;;
28009;SDS011;15334;49.494;8.410;2023-05-10T10:48:40;1.63;;;1.13;;
28009;SDS011;15334;49.494;8.410;2023-05-10T10:51:08;4.93;;;1.77;;
28009;SDS011;15334;49.494;8.410;2023-05-10T10:53:39;2.15;;;1.00;;
28009;SDS011;15334;49.494;8.410;2023-05-10T10:56:10;3.47;;;1.30;;
28009;SDS011;15334;49.494;8.410;2023-05-10T10:58:41;2.60;;;1.00;;
28009;SDS011;15334;49.494;8.410;2023-05-10T11:01:16;0.90;;;0.50;;
28009;SDS011;15334;49.494;8.410;2023-05-10T11:06:44;1.73;;;0.90;;
28009;SDS011;15334;49.494;8.410;2023-05-10T11:09:12;1.98;;;0.68;;
28009;SDS011;15334;49.494;8.410;2023-05-10T11:11:52;2.00;;;0.80;;
28009;SDS011;15334;49.494;8.410;2023-05-10T11:14:22;2.28;;;0.85;;
28009;SDS011;15334;49.494;8.410;2023-05-10T11:16:50;1.38;;;0.70;;
28009;SDS011;15334;49.494;8.410;2023-05-10T11:19:18;3.05;;;0.70;;
28009;SDS011;15334;49.494;8.410;2023-05-10T11:21:47;3.13;;;0.90;;
28009;SDS011;15334;49.494;8.410;2023-05-10T11:24:17;0.80;;;0.52;;
28009;SDS011;15334;49.494;8.410;2023-05-10T11:26:48;4.20;;;1.10;;
28009;SDS011;15334;49.494;8.410;2023-05-10T11:29:19;2.55;;;0.60;;
28009;SDS011;15334;49.494;8.410;2023-05-10T11:31:47;3.60;;;0.82;;
28009;SDS011;15334;49.494;8.410;2023-05-10T11:34:25;2.28;;;0.60;;
28009;SDS011;15334;49.494;8.410;2023-05-10T11:36:54;2.90;;;0.90;;
28009;SDS011;15334;49.494;8.410;2023-05-10T11:39:25;1.90;;;0.70;;
28009;SDS011;15334;49.494;8.410;2023-05-10T11:41:55;2.42;;;0.80;;
28009;SDS011;15334;49.494;8.410;2023-05-10T11:44:25;3.22;;;0.80;;
28009;SDS011;15334;49.494;8.410;2023-05-10T11:46:58;1.33;;;0.90;;
28009;SDS011;15334;49.494;8.410;2023-05-10T11:49:26;1.92;;;0.90;;
28009;SDS011;15334;49.494;8.410;2023-05-10T11:52:03;0.90;;;0.50;;
28009;SDS011;15334;49.494;8.410;2023-05-10T11:54:32;3.22;;;0.98;;
28009;SDS011;15334;49.494;8.410;2023-05-10T11:57:01;2.55;;;0.77;;
28009;SDS011;15334;49.494;8.410;2023-05-10T11:59:31;1.63;;;0.88;;
28009;SDS011;15334;49.494;8.410;2023-05-10T12:01:59;0.40;;;0.30;;
28009;SDS011;15334;49.494;8.410;2023-05-10T12:04:27;2.55;;;0.55;;
28009;SDS011;15334;49.494;8.410;2023-05-10T12:06:55;1.38;;;0.80;;
28009;SDS011;15334;49.494;8.410;2023-05-10T12:09:24;1.42;;;0.60;;
28009;SDS011;15334;49.494;8.410;2023-05-10T12:12:08;3.67;;;0.95;;
28009;SDS011;15334;49.494;8.410;2023-05-10T12:14:37;3.22;;;1.05;;
28009;SDS011;15334;49.494;8.410;2023-05-10T12:17:05;2.70;;;1.13;;
28009;SDS011;15334;49.494;8.410;2023-05-10T12:19:37;3.15;;;0.80;;
28009;SDS011;15334;49.494;8.410;2023-05-10T12:22:05;1.63;;;0.82;;
28009;SDS011;15334;49.494;8.410;2023-05-10T12:24:33;1.65;;;0.85;;
28009;SDS011;15334;49.494;8.410;2023-05-10T12:27:04;2.42;;;0.68;;
28009;SDS011;15334;49.494;8.410;2023-05-10T12:29:34;5.40;;;0.85;;
28009;SDS011;15334;49.494;8.410;2023-05-10T12:32:03;2.10;;;0.93;;
28009;SDS011;15334;49.494;8.410;2023-05-10T12:34:32;1.63;;;1.02;;
28009;SDS011;15334;49.494;8.410;2023-05-10T12:37:01;1.40;;;0.80;;
28009;SDS011;15334;49.494;8.410;2023-05-10T12:39:39;3.00;;;0.98;;
28009;SDS011;15334;49.494;8.410;2023-05-10T12:42:08;1.77;;;0.95;;
28009;SDS011;15334;49.494;8.410;2023-05-10T12:44:36;3.40;;;0.90;;
28009;SDS011;15334;49.494;8.410;2023-05-10T12:47:05;2.38;;;0.93;;
28009;SDS011;15334;49.494;8.410;2023-05-10T12:49:33;2.75;;;0.80;;
28009;SDS011;15334;49.494;8.410;2023-05-10T12:52:01;3.13;;;0.82;;
28009;SDS011;15334;49.494;8.410;2023-05-10T12:54:31;1.33;;;0.75;;
28009;SDS011;15334;49.494;8.410;2023-05-10T12:56:59;1.40;;;0.77;;
28009;SDS011;15334;49.494;8.410;2023-05-10T12:59:27;2.83;;;1.00;;
28009;SDS011;15334;49.494;8.410;2023-05-10T13:01:55;2.47;;;0.70;;
28009;SDS011;15334;49.494;8.410;2023-05-10T13:04:25;2.33;;;0.80;;
28009;SDS011;15334;49.494;8.410;2023-05-10T13:06:53;2.03;;;0.55;;
28009;SDS011;15334;49.494;8.410;2023-05-10T13:09:24;2.20;;;0.68;;
28009;SDS011;15334;49.494;8.410;2023-05-10T13:11:54;2.22;;;0.55;;
28009;SDS011;15334;49.494;8.410;2023-05-10T13:14:22;2.42;;;0.70;;
28009;SDS011;15334;49.494;8.410;2023-05-10T13:16:52;2.38;;;0.63;;
28009;SDS011;15334;49.494;8.410;2023-05-10T13:19:22;5.03;;;0.70;;
28009;SDS011;15334;49.494;8.410;2023-05-10T13:21:51;1.80;;;0.43;;
28009;SDS011;15334;49.494;8.410;2023-05-10T13:24:19;1.10;;;0.88;;
28009;SDS011;15334;49.494;8.410;2023-05-10T13:26:47;1.42;;;0.50;;
28009;SDS011;15334;49.494;8.410;2023-05-10T13:29:15;2.85;;;0.77;;
28009;SDS011;15334;49.494;8.410;2023-05-10T13:31:44;1.95;;;0.55;;
28009;SDS011;15334;49.494;8.410;2023-05-10T13:34:13;0.90;;;0.40;;
28009;SDS011;15334;49.494;8.410;2023-05-10T13:36:41;1.80;;;1.13;;
28009;SDS011;15334;49.494;8.410;2023-05-10T13:39:10;2.78;;;0.50;;
28009;SDS011;15334;49.494;8.410;2023-05-10T13:41:38;1.38;;;0.57;;
28009;SDS011;15334;49.494;8.410;2023-05-10T13:44:06;2.67;;;0.68;;
28009;SDS011;15334;49.494;8.410;2023-05-10T13:46:34;2.42;;;0.50;;
28009;SDS011;15334;49.494;8.410;2023-05-10T13:49:02;2.63;;;0.70;;
28009;SDS011;15334;49.494;8.410;2023-05-10T13:51:30;3.47;;;0.70;;
28009;SDS011;15334;49.494;8.410;2023-05-10T13:53:58;0.73;;;0.40;;
28009;SDS011;15334;49.494;8.410;2023-05-10T13:56:28;2.28;;;0.63;;
28009;SDS011;15334;49.494;8.410;2023-05-10T13:58:56;1.25;;;0.70;;
28009;SDS011;15334;49.494;8.410;2023-05-10T14:01:24;2.65;;;0.88;;
28009;SDS011;15334;49.494;8.410;2023-05-10T14:03:53;1.75;;;0.60;;
28009;SDS011;15334;49.494;8.410;2023-05-10T14:06:21;1.42;;;0.50;;
28009;SDS011;15334;49.494;8.410;2023-05-10T14:08:49;1.15;;;0.50;;
28009;SDS011;15334;49.494;8.410;2023-05-10T14:11:17;1.35;;;0.70;;
28009;SDS011;15334;49.494;8.410;2023-05-10T14:13:46;0.35;;;0.30;;
28009;SDS011;15334;49.494;8.410;2023-05-10T14:16:14;1.70;;;0.50;;
28009;SDS011;15334;49.494;8.410;2023-05-10T14:18:42;2.60;;;0.65;;
28009;SDS011;15334;49.494;8.410;2023-05-10T14:21:10;2.88;;;0.50;;
28009;SDS011;15334;49.494;8.410;2023-05-10T14:23:38;1.80;;;0.63;;
28009;SDS011;15334;49.494;8.410;2023-05-10T14:26:06;2.13;;;0.60;;
28009;SDS011;15334;49.494;8.410;2023-05-10T14:28:34;0.90;;;0.60;;
28009;SDS011;15334;49.494;8.410;2023-05-10T14:31:04;2.00;;;1.58;;
28009;SDS011;15334;49.494;8.410;2023-05-10T14:33:32;4.18;;;1.77;;
28009;SDS011;15334;49.494;8.410;2023-05-10T14:36:00;3.10;;;0.80;;
28009;SDS011;15334;49.494;8.410;2023-05-10T14:38:29;3.58;;;0.73;;
28009;SDS011;15334;49.494;8.410;2023-05-10T14:40:57;2.78;;;0.63;;
28009;SDS011;15334;49.494;8.410;2023-05-10T14:43:25;2.15;;;0.60;;
28009;SDS011;15334;49.494;8.410;2023-05-10T14:45:54;5.03;;;0.70;;
28009;SDS011;15334;49.494;8.410;2023-05-10T14:48:23;3.22;;;0.60;;
28009;SDS011;15334;49.494;8.410;2023-05-10T14:50:51;0.73;;;0.47;;
28009;SDS011;15334;49.494;8.410;2023-05-10T14:53:19;2.40;;;0.60;;
28009;SDS011;15334;49.494;8.410;2023-05-10T14:55:47;3.17;;;0.40;;
28009;SDS011;15334;49.494;8.410;2023-05-10T14:58:15;0.95;;;0.40;;
28009;SDS011;15334;49.494;8.410;2023-05-10T15:00:43;1.50;;;0.50;;
28009;SDS011;15334;49.494;8.410;2023-05-10T15:03:12;1.17;;;0.40;;
28009;SDS011;15334;49.494;8.410;2023-05-10T15:05:42;1.45;;;0.57;;
28009;SDS011;15334;49.494;8.410;2023-05-10T15:08:10;0.40;;;0.40;;
28009;SDS011;15334;49.494;8.410;2023-05-10T15:10:38;0.68;;;0.30;;
28009;SDS011;15334;49.494;8.410;2023-05-10T15:13:06;2.28;;;0.50;;
28009;SDS011;15334;49.494;8.410;2023-05-10T15:15:34;1.23;;;0.45;;